sensor_id;sensor_type;location;lat;lon;timestamp;temperature;humidity
65972;SHT31;52726;48.852;9.152;2023-12-20T00:01:34;5.70;88.67
65972;SHT31;52726;48.852;9.152;2023-12-20T00:04:00;5.73;88.63
65972;SHT31;52726;48.852;9.152;2023-12-20T00:06:26;5.75;89.02
65972;SHT31;52726;48.852;9.152;2023-12-20T00:08:51;5.70;89.38
65972;SHT31;52726;48.852;9.152;2023-12-20T00:11:16;5.69;89.68
65972;SHT31;52726;48.852;9.152;2023-12-20T00:13:42;5.63;89.96
65972;SHT31;52726;48.852;9.152;2023-12-20T00:16:07;5.55;90.49
65972;SHT31;52726;48.852;9.152;2023-12-20T00:18:32;5.49;90.96
65972;SHT31;52726;48.852;9.152;2023-12-20T00:20:58;5.41;91.36
65972;SHT31;52726;48.852;9.152;2023-12-20T00:23:23;5.45;91.57
65972;SHT31;52726;48.852;9.152;2023-12-20T00:25:49;5.47;91.87
65972;SHT31;52726;48.852;9.152;2023-12-20T00:28:14;5.42;92.17
65972;SHT31;52726;48.852;9.152;2023-12-20T00:30:39;5.37;92.56
65972;SHT31;52726;48.852;9.152;2023-12-20T00:33:05;5.32;92.95
65972;SHT31;52726;48.852;9.152;2023-12-20T00:35:30;5.34;93.08
65972;SHT31;52726;48.852;9.152;2023-12-20T00:37:55;5.30;93.52
65972;SHT31;52726;48.852;9.152;2023-12-20T00:40:21;5.28;94.05
65972;SHT31;52726;48.852;9.152;2023-12-20T00:42:47;5.26;94.28
65972;SHT31;52726;48.852;9.152;2023-12-20T00:45:15;5.26;94.63
65972;SHT31;52726;48.852;9.152;2023-12-20T00:47:41;5.23;94.70
65972;SHT31;52726;48.852;9.152;2023-12-20T00:50:07;5.14;94.92
65972;SHT31;52726;48.852;9.152;2023-12-20T00:52:35;5.13;95.23
65972;SHT31;52726;48.852;9.152;2023-12-20T00:55:01;5.11;95.36
65972;SHT31;52726;48.852;9.152;2023-12-20T00:57:28;5.10;95.55
65972;SHT31;52726;48.852;9.152;2023-12-20T00:59:54;5.08;95.74
65972;SHT31;52726;48.852;9.152;2023-12-20T01:02:19;5.06;95.76
65972;SHT31;52726;48.852;9.152;2023-12-20T01:04:44;5.03;95.85
65972;SHT31;52726;48.852;9.152;2023-12-20T01:07:10;5.01;96.02
65972;SHT31;52726;48.852;9.152;2023-12-20T01:09:51;4.99;96.14
65972;SHT31;52726;48.852;9.152;2023-12-20T01:12:16;4.96;96.20
65972;SHT31;52726;48.852;9.152;2023-12-20T01:14:41;4.93;96.26
65972;SHT31;52726;48.852;9.152;2023-12-20T01:17:07;4.91;96.56
65972;SHT31;52726;48.852;9.152;2023-12-20T01:19:32;4.89;96.65
65972;SHT31;52726;48.852;9.152;2023-12-20T01:21:58;4.89;96.83
65972;SHT31;52726;48.852;9.152;2023-12-20T01:24:23;4.86;96.82
65972;SHT31;52726;48.852;9.152;2023-12-20T01:26:48;4.83;96.99
65972;SHT31;52726;48.852;9.152;2023-12-20T01:29:14;4.83;97.12
65972;SHT31;52726;48.852;9.152;2023-12-20T01:31:40;4.80;97.25
65972;SHT31;52726;48.852;9.152;2023-12-20T01:34:08;4.79;97.44
65972;SHT31;52726;48.852;9.152;2023-12-20T01:36:33;4.83;97.65
65972;SHT31;52726;48.852;9.152;2023-12-20T01:38:59;4.80;97.67
65972;SHT31;52726;48.852;9.152;2023-12-20T01:41:24;4.80;97.71
65972;SHT31;52726;48.852;9.152;2023-12-20T01:43:49;4.79;97.83
65972;SHT31;52726;48.852;9.152;2023-12-20T01:46:15;4.80;97.92
65972;SHT31;52726;48.852;9.152;2023-12-20T01:48:42;4.79;98.07
65972;SHT31;52726;48.852;9.152;2023-12-20T01:51:07;4.79;98.05
65972;SHT31;52726;48.852;9.152;2023-12-20T01:53:33;4.77;98.17
65972;SHT31;52726;48.852;9.152;2023-12-20T01:55:59;4.79;98.26
65972;SHT31;52726;48.852;9.152;2023-12-20T01:58:25;4.79;98.19
65972;SHT31;52726;48.852;9.152;2023-12-20T02:00:51;4.72;98.11
65972;SHT31;52726;48.852;9.152;2023-12-20T02:03:16;4.68;98.10
65972;SHT31;52726;48.852;9.152;2023-12-20T02:05:42;4.62;98.16
65972;SHT31;52726;48.852;9.152;2023-12-20T02:08:09;4.61;98.30
65972;SHT31;52726;48.852;9.152;2023-12-20T02:10:34;4.58;98.33
65972;SHT31;52726;48.852;9.152;2023-12-20T02:13:00;4.58;98.42
65972;SHT31;52726;48.852;9.152;2023-12-20T02:15:25;4.58;98.50
65972;SHT31;52726;48.852;9.152;2023-12-20T02:17:50;4.59;98.62
65972;SHT31;52726;48.852;9.152;2023-12-20T02:20:16;4.61;98.73
65972;SHT31;52726;48.852;9.152;2023-12-20T02:22:41;4.62;98.82
65972;SHT31;52726;48.852;9.152;2023-12-20T02:25:07;4.63;98.82
65972;SHT31;52726;48.852;9.152;2023-12-20T02:27:32;4.69;99.08
65972;SHT31;52726;48.852;9.152;2023-12-20T02:29:58;4.75;99.20
65972;SHT31;52726;48.852;9.152;2023-12-20T02:32:24;4.75;99.10
65972;SHT31;52726;48.852;9.152;2023-12-20T02:34:53;4.79;99.14
65972;SHT31;52726;48.852;9.152;2023-12-20T02:37:18;4.83;99.14
65972;SHT31;52726;48.852;9.152;2023-12-20T02:39:43;4.86;99.27
65972;SHT31;52726;48.852;9.152;2023-12-20T02:42:09;4.94;99.40
65972;SHT31;52726;48.852;9.152;2023-12-20T02:44:34;4.97;99.40
65972;SHT31;52726;48.852;9.152;2023-12-20T02:46:59;5.04;99.40
65972;SHT31;52726;48.852;9.152;2023-12-20T02:49:25;5.04;99.28
65972;SHT31;52726;48.852;9.152;2023-12-20T02:51:50;5.13;99.27
65972;SHT31;52726;48.852;9.152;2023-12-20T02:54:15;5.20;98.79
65972;SHT31;52726;48.852;9.152;2023-12-20T02:56:41;5.23;97.74
65972;SHT31;52726;48.852;9.152;2023-12-20T02:59:06;5.27;96.79
65972;SHT31;52726;48.852;9.152;2023-12-20T03:01:33;5.28;96.60
65972;SHT31;52726;48.852;9.152;2023-12-20T03:03:59;5.32;96.08
65972;SHT31;52726;48.852;9.152;2023-12-20T03:06:24;5.31;95.67
65972;SHT31;52726;48.852;9.152;2023-12-20T03:08:50;5.30;95.92
65972;SHT31;52726;48.852;9.152;2023-12-20T03:11:15;5.26;96.13
65972;SHT31;52726;48.852;9.152;2023-12-20T03:13:40;5.26;95.56
65972;SHT31;52726;48.852;9.152;2023-12-20T03:16:13;5.21;95.42
65972;SHT31;52726;48.852;9.152;2023-12-20T03:18:38;5.23;95.52
65972;SHT31;52726;48.852;9.152;2023-12-20T03:21:04;5.20;95.36
65972;SHT31;52726;48.852;9.152;2023-12-20T03:23:30;5.20;94.92
65972;SHT31;52726;48.852;9.152;2023-12-20T03:25:57;5.16;95.12
65972;SHT31;52726;48.852;9.152;2023-12-20T03:28:23;5.16;95.02
65972;SHT31;52726;48.852;9.152;2023-12-20T03:30:48;5.16;95.01
65972;SHT31;52726;48.852;9.152;2023-12-20T03:33:13;5.07;95.20
65972;SHT31;52726;48.852;9.152;2023-12-20T03:35:39;5.07;95.24
65972;SHT31;52726;48.852;9.152;2023-12-20T03:38:04;5.08;94.99
65972;SHT31;52726;48.852;9.152;2023-12-20T03:40:29;5.03;94.97
65972;SHT31;52726;48.852;9.152;2023-12-20T03:42:55;5.04;95.13
65972;SHT31;52726;48.852;9.152;2023-12-20T03:45:20;5.04;95.24
65972;SHT31;52726;48.852;9.152;2023-12-20T03:47:45;5.00;95.31
65972;SHT31;52726;48.852;9.152;2023-12-20T03:50:11;4.97;95.48
65972;SHT31;52726;48.852;9.152;2023-12-20T03:52:36;4.96;95.57
65972;SHT31;52726;48.852;9.152;2023-12-20T03:55:01;4.94;95.62
65972;SHT31;52726;48.852;9.152;2023-12-20T03:57:26;4.91;95.67
65972;SHT31;52726;48.852;9.152;2023-12-20T03:59:52;4.90;95.63
65972;SHT31;52726;48.852;9.152;2023-12-20T04:02:17;4.89;95.57
65972;SHT31;52726;48.852;9.152;2023-12-20T04:04:43;4.90;95.59
65972;SHT31;52726;48.852;9.152;2023-12-20T04:07:08;4.87;95.62
65972;SHT31;52726;48.852;9.152;2023-12-20T04:09:33;4.89;95.46
65972;SHT31;52726;48.852;9.152;2023-12-20T04:11:59;4.87;95.71
65972;SHT31;52726;48.852;9.152;2023-12-20T04:14:24;4.90;95.60
65972;SHT31;52726;48.852;9.152;2023-12-20T04:16:50;4.87;95.74
65972;SHT31;52726;48.852;9.152;2023-12-20T04:19:15;4.86;95.84
65972;SHT31;52726;48.852;9.152;2023-12-20T04:21:40;4.83;95.88
65972;SHT31;52726;48.852;9.152;2023-12-20T04:24:06;4.81;95.91
65972;SHT31;52726;48.852;9.152;2023-12-20T04:26:31;4.81;96.06
65972;SHT31;52726;48.852;9.152;2023-12-20T04:28:56;4.84;96.03
65972;SHT31;52726;48.852;9.152;2023-12-20T04:31:22;4.81;95.92
65972;SHT31;52726;48.852;9.152;2023-12-20T04:33:47;4.80;95.88
65972;SHT31;52726;48.852;9.152;2023-12-20T04:36:12;4.81;95.87
65972;SHT31;52726;48.852;9.152;2023-12-20T04:38:38;4.84;95.79
65972;SHT31;52726;48.852;9.152;2023-12-20T04:41:03;4.83;95.89
65972;SHT31;52726;48.852;9.152;2023-12-20T04:43:28;4.83;95.89
65972;SHT31;52726;48.852;9.152;2023-12-20T04:45:55;4.90;95.64
65972;SHT31;52726;48.852;9.152;2023-12-20T04:48:20;4.86;95.54
65972;SHT31;52726;48.852;9.152;2023-12-20T04:50:45;4.89;95.62
65972;SHT31;52726;48.852;9.152;2023-12-20T04:53:10;4.90;95.64
65972;SHT31;52726;48.852;9.152;2023-12-20T04:55:36;4.87;95.75
65972;SHT31;52726;48.852;9.152;2023-12-20T04:58:01;4.87;95.76
65972;SHT31;52726;48.852;9.152;2023-12-20T05:00:27;4.90;95.84
65972;SHT31;52726;48.852;9.152;2023-12-20T05:02:52;4.91;95.91
65972;SHT31;52726;48.852;9.152;2023-12-20T05:05:17;4.91;95.87
65972;SHT31;52726;48.852;9.152;2023-12-20T05:07:43;4.90;95.77
65972;SHT31;52726;48.852;9.152;2023-12-20T05:10:09;4.93;95.73
65972;SHT31;52726;48.852;9.152;2023-12-20T05:12:34;4.91;95.74
65972;SHT31;52726;48.852;9.152;2023-12-20T05:15:00;4.90;96.02
65972;SHT31;52726;48.852;9.152;2023-12-20T05:17:25;4.91;96.08
65972;SHT31;52726;48.852;9.152;2023-12-20T05:19:50;4.94;96.04
65972;SHT31;52726;48.852;9.152;2023-12-20T05:22:16;4.94;96.06
65972;SHT31;52726;48.852;9.152;2023-12-20T05:24:42;5.00;96.17
65972;SHT31;52726;48.852;9.152;2023-12-20T05:27:07;4.99;96.29
65972;SHT31;52726;48.852;9.152;2023-12-20T05:29:33;5.01;96.46
65972;SHT31;52726;48.852;9.152;2023-12-20T05:31:58;5.01;96.61
65972;SHT31;52726;48.852;9.152;2023-12-20T05:34:23;5.00;96.77
65972;SHT31;52726;48.852;9.152;2023-12-20T05:36:49;5.01;96.98
65972;SHT31;52726;48.852;9.152;2023-12-20T05:39:14;5.01;97.13
65972;SHT31;52726;48.852;9.152;2023-12-20T05:41:39;5.01;97.30
65972;SHT31;52726;48.852;9.152;2023-12-20T05:44:05;5.06;97.53
65972;SHT31;52726;48.852;9.152;2023-12-20T05:46:30;5.03;97.54
65972;SHT31;52726;48.852;9.152;2023-12-20T05:48:55;5.06;97.69
65972;SHT31;52726;48.852;9.152;2023-12-20T05:51:21;5.06;97.79
65972;SHT31;52726;48.852;9.152;2023-12-20T05:53:46;5.03;97.79
65972;SHT31;52726;48.852;9.152;2023-12-20T05:56:12;5.07;97.88
65972;SHT31;52726;48.852;9.152;2023-12-20T05:58:38;5.01;97.88
65972;SHT31;52726;48.852;9.152;2023-12-20T06:01:04;5.07;97.93
65972;SHT31;52726;48.852;9.152;2023-12-20T06:03:30;5.06;97.97
65972;SHT31;52726;48.852;9.152;2023-12-20T06:05:55;5.10;98.03
65972;SHT31;52726;48.852;9.152;2023-12-20T06:08:20;5.07;98.08
65972;SHT31;52726;48.852;9.152;2023-12-20T06:10:46;5.07;98.07
65972;SHT31;52726;48.852;9.152;2023-12-20T06:13:11;5.07;98.19
65972;SHT31;52726;48.852;9.152;2023-12-20T06:15:38;5.06;98.22
65972;SHT31;52726;48.852;9.152;2023-12-20T06:18:05;5.11;98.26
65972;SHT31;52726;48.852;9.152;2023-12-20T06:20:30;5.08;98.32
65972;SHT31;52726;48.852;9.152;2023-12-20T06:22:56;5.10;98.35
65972;SHT31;52726;48.852;9.152;2023-12-20T06:25:21;5.10;98.38
65972;SHT31;52726;48.852;9.152;2023-12-20T06:27:46;5.10;98.43
65972;SHT31;52726;48.852;9.152;2023-12-20T06:30:12;5.07;98.48
65972;SHT31;52726;48.852;9.152;2023-12-20T06:32:37;5.08;98.54
65972;SHT31;52726;48.852;9.152;2023-12-20T06:35:04;5.06;98.57
65972;SHT31;52726;48.852;9.152;2023-12-20T06:37:30;5.08;98.62
65972;SHT31;52726;48.852;9.152;2023-12-20T06:39:55;5.10;98.58
65972;SHT31;52726;48.852;9.152;2023-12-20T06:42:22;5.11;98.55
65972;SHT31;52726;48.852;9.152;2023-12-20T06:44:47;5.14;98.42
65972;SHT31;52726;48.852;9.152;2023-12-20T06:47:12;5.14;98.29
65972;SHT31;52726;48.852;9.152;2023-12-20T06:49:39;5.16;98.02
65972;SHT31;52726;48.852;9.152;2023-12-20T06:52:05;5.20;97.87
65972;SHT31;52726;48.852;9.152;2023-12-20T06:54:30;5.20;97.78
65972;SHT31;52726;48.852;9.152;2023-12-20T06:56:56;5.21;97.60
65972;SHT31;52726;48.852;9.152;2023-12-20T06:59:21;5.26;97.52
65972;SHT31;52726;48.852;9.152;2023-12-20T07:01:50;5.27;97.32
65972;SHT31;52726;48.852;9.152;2023-12-20T07:04:15;5.24;97.31
65972;SHT31;52726;48.852;9.152;2023-12-20T07:06:41;5.27;97.36
65972;SHT31;52726;48.852;9.152;2023-12-20T07:09:07;5.27;97.25
65972;SHT31;52726;48.852;9.152;2023-12-20T07:11:32;5.28;97.16
65972;SHT31;52726;48.852;9.152;2023-12-20T07:13:58;5.26;97.27
65972;SHT31;52726;48.852;9.152;2023-12-20T07:16:23;5.28;97.47
65972;SHT31;52726;48.852;9.152;2023-12-20T07:18:49;5.26;97.36
65972;SHT31;52726;48.852;9.152;2023-12-20T07:21:15;5.26;97.47
65972;SHT31;52726;48.852;9.152;2023-12-20T07:23:40;5.24;97.37
65972;SHT31;52726;48.852;9.152;2023-12-20T07:26:06;5.26;97.03
65972;SHT31;52726;48.852;9.152;2023-12-20T07:28:31;5.21;97.01
65972;SHT31;52726;48.852;9.152;2023-12-20T07:30:57;5.24;96.64
65972;SHT31;52726;48.852;9.152;2023-12-20T07:33:22;5.18;96.66
65972;SHT31;52726;48.852;9.152;2023-12-20T07:35:47;5.14;96.36
65972;SHT31;52726;48.852;9.152;2023-12-20T07:38:13;5.16;96.07
65972;SHT31;52726;48.852;9.152;2023-12-20T07:40:38;5.13;95.41
65972;SHT31;52726;48.852;9.152;2023-12-20T07:43:04;5.11;94.61
65972;SHT31;52726;48.852;9.152;2023-12-20T07:45:29;5.11;94.66
65972;SHT31;52726;48.852;9.152;2023-12-20T07:47:55;5.08;94.06
65972;SHT31;52726;48.852;9.152;2023-12-20T07:50:20;5.07;94.15
65972;SHT31;52726;48.852;9.152;2023-12-20T07:52:45;4.99;94.17
65972;SHT31;52726;48.852;9.152;2023-12-20T07:55:11;4.94;93.97
65972;SHT31;52726;48.852;9.152;2023-12-20T07:57:36;4.89;93.82
65972;SHT31;52726;48.852;9.152;2023-12-20T08:00:01;4.83;93.56
65972;SHT31;52726;48.852;9.152;2023-12-20T08:02:28;4.75;93.80
65972;SHT31;52726;48.852;9.152;2023-12-20T08:04:54;4.65;94.05
65972;SHT31;52726;48.852;9.152;2023-12-20T08:07:19;4.59;94.01
65972;SHT31;52726;48.852;9.152;2023-12-20T08:09:45;4.55;93.81
65972;SHT31;52726;48.852;9.152;2023-12-20T08:12:10;4.51;93.85
65972;SHT31;52726;48.852;9.152;2023-12-20T08:14:36;4.52;93.94
65972;SHT31;52726;48.852;9.152;2023-12-20T08:17:01;4.49;93.99
65972;SHT31;52726;48.852;9.152;2023-12-20T08:19:26;4.51;94.15
65972;SHT31;52726;48.852;9.152;2023-12-20T08:21:52;4.55;93.88
65972;SHT31;52726;48.852;9.152;2023-12-20T08:24:17;4.55;93.79
65972;SHT31;52726;48.852;9.152;2023-12-20T08:26:42;4.52;93.91
65972;SHT31;52726;48.852;9.152;2023-12-20T08:29:08;4.51;93.64
65972;SHT31;52726;48.852;9.152;2023-12-20T08:31:33;4.49;93.59
65972;SHT31;52726;48.852;9.152;2023-12-20T08:33:59;4.51;93.17
65972;SHT31;52726;48.852;9.152;2023-12-20T08:36:24;4.53;92.85
65972;SHT31;52726;48.852;9.152;2023-12-20T08:38:50;4.55;92.75
65972;SHT31;52726;48.852;9.152;2023-12-20T08:41:19;4.55;92.67
65972;SHT31;52726;48.852;9.152;2023-12-20T08:43:45;4.59;92.57
65972;SHT31;52726;48.852;9.152;2023-12-20T08:46:11;4.55;92.86
65972;SHT31;52726;48.852;9.152;2023-12-20T08:48:37;4.58;93.03
65972;SHT31;52726;48.852;9.152;2023-12-20T08:51:03;4.59;93.13
65972;SHT31;52726;48.852;9.152;2023-12-20T08:53:28;4.63;92.91
65972;SHT31;52726;48.852;9.152;2023-12-20T08:55:54;4.65;92.84
65972;SHT31;52726;48.852;9.152;2023-12-20T08:58:19;4.65;92.74
65972;SHT31;52726;48.852;9.152;2023-12-20T09:00:45;4.69;92.58
65972;SHT31;52726;48.852;9.152;2023-12-20T09:03:10;4.72;92.70
65972;SHT31;52726;48.852;9.152;2023-12-20T09:05:35;4.75;92.06
65972;SHT31;52726;48.852;9.152;2023-12-20T09:08:01;4.79;91.48
65972;SHT31;52726;48.852;9.152;2023-12-20T09:10:26;4.81;91.96
65972;SHT31;52726;48.852;9.152;2023-12-20T09:12:52;4.81;91.93
65972;SHT31;52726;48.852;9.152;2023-12-20T09:15:25;4.84;91.56
65972;SHT31;52726;48.852;9.152;2023-12-20T09:17:51;4.90;91.22
65972;SHT31;52726;48.852;9.152;2023-12-20T09:20:16;4.93;90.91
65972;SHT31;52726;48.852;9.152;2023-12-20T09:22:42;4.94;91.00
65972;SHT31;52726;48.852;9.152;2023-12-20T09:25:08;5.00;91.38
65972;SHT31;52726;48.852;9.152;2023-12-20T09:27:33;5.01;90.93
65972;SHT31;52726;48.852;9.152;2023-12-20T09:29:58;5.07;91.06
65972;SHT31;52726;48.852;9.152;2023-12-20T09:32:24;5.10;89.19
65972;SHT31;52726;48.852;9.152;2023-12-20T09:34:49;5.17;89.59
65972;SHT31;52726;48.852;9.152;2023-12-20T09:37:14;5.20;89.65
65972;SHT31;52726;48.852;9.152;2023-12-20T09:39:40;5.24;89.29
65972;SHT31;52726;48.852;9.152;2023-12-20T09:42:06;5.27;89.27
65972;SHT31;52726;48.852;9.152;2023-12-20T09:44:32;5.26;87.30
65972;SHT31;52726;48.852;9.152;2023-12-20T09:47:03;5.30;86.67
65972;SHT31;52726;48.852;9.152;2023-12-20T09:49:29;5.35;87.31
65972;SHT31;52726;48.852;9.152;2023-12-20T09:51:56;5.37;86.33
65972;SHT31;52726;48.852;9.152;2023-12-20T09:54:22;5.39;86.47
65972;SHT31;52726;48.852;9.152;2023-12-20T09:56:48;5.32;85.73
65972;SHT31;52726;48.852;9.152;2023-12-20T09:59:14;5.38;83.86
65972;SHT31;52726;48.852;9.152;2023-12-20T10:01:40;5.37;83.51
65972;SHT31;52726;48.852;9.152;2023-12-20T10:04:08;5.32;83.63
65972;SHT31;52726;48.852;9.152;2023-12-20T10:06:52;5.23;84.56
65972;SHT31;52726;48.852;9.152;2023-12-20T10:09:17;5.16;85.12
65972;SHT31;52726;48.852;9.152;2023-12-20T10:11:43;5.11;84.29
65972;SHT31;52726;48.852;9.152;2023-12-20T10:14:10;5.03;84.58
65972;SHT31;52726;48.852;9.152;2023-12-20T10:16:36;4.93;85.16
65972;SHT31;52726;48.852;9.152;2023-12-20T10:19:01;4.96;85.90
65972;SHT31;52726;48.852;9.152;2023-12-20T10:21:27;5.04;84.67
65972;SHT31;52726;48.852;9.152;2023-12-20T10:23:57;5.13;85.34
65972;SHT31;52726;48.852;9.152;2023-12-20T10:26:24;5.07;85.56
65972;SHT31;52726;48.852;9.152;2023-12-20T10:28:51;5.06;85.20
65972;SHT31;52726;48.852;9.152;2023-12-20T10:31:32;4.94;85.04
65972;SHT31;52726;48.852;9.152;2023-12-20T10:33:59;4.90;84.65
65972;SHT31;52726;48.852;9.152;2023-12-20T10:36:28;4.87;85.14
65972;SHT31;52726;48.852;9.152;2023-12-20T10:38:55;4.84;85.53
65972;SHT31;52726;48.852;9.152;2023-12-20T10:41:28;4.91;85.86
65972;SHT31;52726;48.852;9.152;2023-12-20T10:43:56;5.07;85.78
65972;SHT31;52726;48.852;9.152;2023-12-20T10:46:23;5.27;85.55
65972;SHT31;52726;48.852;9.152;2023-12-20T10:48:53;5.41;84.80
65972;SHT31;52726;48.852;9.152;2023-12-20T10:51:20;5.47;84.46
65972;SHT31;52726;48.852;9.152;2023-12-20T10:53:47;5.63;84.43
65972;SHT31;52726;48.852;9.152;2023-12-20T10:56:18;5.76;83.25
65972;SHT31;52726;48.852;9.152;2023-12-20T10:58:45;5.93;82.57
65972;SHT31;52726;48.852;9.152;2023-12-20T11:01:13;6.06;82.46
65972;SHT31;52726;48.852;9.152;2023-12-20T11:03:44;6.16;81.28
65972;SHT31;52726;48.852;9.152;2023-12-20T11:08:53;6.11;79.78
65972;SHT31;52726;48.852;9.152;2023-12-20T11:11:35;6.07;79.41
65972;SHT31;52726;48.852;9.152;2023-12-20T11:14:07;6.03;80.59
65972;SHT31;52726;48.852;9.152;2023-12-20T11:16:37;5.99;81.03
65972;SHT31;52726;48.852;9.152;2023-12-20T11:19:05;5.87;81.24
65972;SHT31;52726;48.852;9.152;2023-12-20T11:21:31;5.93;82.49
65972;SHT31;52726;48.852;9.152;2023-12-20T11:23:56;5.94;81.90
65972;SHT31;52726;48.852;9.152;2023-12-20T11:26:28;5.90;82.08
65972;SHT31;52726;48.852;9.152;2023-12-20T11:28:54;5.86;81.97
65972;SHT31;52726;48.852;9.152;2023-12-20T11:31:19;5.72;80.50
65972;SHT31;52726;48.852;9.152;2023-12-20T11:33:45;5.69;81.22
65972;SHT31;52726;48.852;9.152;2023-12-20T11:36:25;5.65;82.00
65972;SHT31;52726;48.852;9.152;2023-12-20T11:38:55;5.60;82.98
65972;SHT31;52726;48.852;9.152;2023-12-20T11:41:22;5.52;82.18
65972;SHT31;52726;48.852;9.152;2023-12-20T11:43:52;5.48;81.81
65972;SHT31;52726;48.852;9.152;2023-12-20T11:46:18;5.47;81.99
65972;SHT31;52726;48.852;9.152;2023-12-20T11:48:44;5.41;80.87
65972;SHT31;52726;48.852;9.152;2023-12-20T11:51:13;5.38;80.45
65972;SHT31;52726;48.852;9.152;2023-12-20T11:53:41;5.35;80.69
65972;SHT31;52726;48.852;9.152;2023-12-20T11:56:10;5.38;80.26
65972;SHT31;52726;48.852;9.152;2023-12-20T11:58:36;5.42;80.80
65972;SHT31;52726;48.852;9.152;2023-12-20T12:01:01;5.45;80.80
65972;SHT31;52726;48.852;9.152;2023-12-20T12:03:30;5.49;80.57
65972;SHT31;52726;48.852;9.152;2023-12-20T12:05:55;5.56;81.15
65972;SHT31;52726;48.852;9.152;2023-12-20T12:08:28;5.58;81.59
65972;SHT31;52726;48.852;9.152;2023-12-20T12:10:56;5.63;81.25
65972;SHT31;52726;48.852;9.152;2023-12-20T12:13:22;5.66;81.59
65972;SHT31;52726;48.852;9.152;2023-12-20T12:15:48;5.73;81.44
65972;SHT31;52726;48.852;9.152;2023-12-20T12:18:16;5.77;80.84
65972;SHT31;52726;48.852;9.152;2023-12-20T12:20:42;5.80;81.29
65972;SHT31;52726;48.852;9.152;2023-12-20T12:23:07;5.89;80.99
65972;SHT31;52726;48.852;9.152;2023-12-20T12:25:37;5.83;79.56
65972;SHT31;52726;48.852;9.152;2023-12-20T12:28:03;5.80;79.75
65972;SHT31;52726;48.852;9.152;2023-12-20T12:30:29;5.82;79.67
65972;SHT31;52726;48.852;9.152;2023-12-20T12:32:56;5.92;79.41
65972;SHT31;52726;48.852;9.152;2023-12-20T12:35:30;5.97;80.13
65972;SHT31;52726;48.852;9.152;2023-12-20T12:38:02;6.07;79.68
65972;SHT31;52726;48.852;9.152;2023-12-20T12:40:28;6.13;79.29
65972;SHT31;52726;48.852;9.152;2023-12-20T12:42:54;6.21;78.95
65972;SHT31;52726;48.852;9.152;2023-12-20T12:45:22;6.10;78.05
65972;SHT31;52726;48.852;9.152;2023-12-20T12:47:47;6.04;78.27
65972;SHT31;52726;48.852;9.152;2023-12-20T12:50:13;6.03;79.17
65972;SHT31;52726;48.852;9.152;2023-12-20T12:52:38;5.90;78.03
65972;SHT31;52726;48.852;9.152;2023-12-20T12:55:06;5.89;79.64
65972;SHT31;52726;48.852;9.152;2023-12-20T12:57:32;5.92;79.48
65972;SHT31;52726;48.852;9.152;2023-12-20T12:59:58;5.87;78.89
65972;SHT31;52726;48.852;9.152;2023-12-20T13:02:24;5.89;79.53
65972;SHT31;52726;48.852;9.152;2023-12-20T13:04:49;5.86;80.18
65972;SHT31;52726;48.852;9.152;2023-12-20T13:07:14;5.83;79.73
65972;SHT31;52726;48.852;9.152;2023-12-20T13:09:40;5.85;79.09
65972;SHT31;52726;48.852;9.152;2023-12-20T13:12:06;5.93;79.01
65972;SHT31;52726;48.852;9.152;2023-12-20T13:14:35;5.92;78.01
65972;SHT31;52726;48.852;9.152;2023-12-20T13:17:02;5.96;78.90
65972;SHT31;52726;48.852;9.152;2023-12-20T13:19:37;6.03;78.01
65972;SHT31;52726;48.852;9.152;2023-12-20T13:22:03;6.16;78.30
65972;SHT31;52726;48.852;9.152;2023-12-20T13:24:29;6.23;78.68
65972;SHT31;52726;48.852;9.152;2023-12-20T13:26:54;6.28;78.16
65972;SHT31;52726;48.852;9.152;2023-12-20T13:29:20;6.27;78.00
65972;SHT31;52726;48.852;9.152;2023-12-20T13:31:45;6.33;78.16
65972;SHT31;52726;48.852;9.152;2023-12-20T13:34:11;6.28;77.85
65972;SHT31;52726;48.852;9.152;2023-12-20T13:36:36;6.30;77.96
65972;SHT31;52726;48.852;9.152;2023-12-20T13:39:03;6.13;77.07
65972;SHT31;52726;48.852;9.152;2023-12-20T13:41:30;6.10;78.24
65972;SHT31;52726;48.852;9.152;2023-12-20T13:43:55;6.04;78.71
65972;SHT31;52726;48.852;9.152;2023-12-20T13:46:20;5.94;78.95
65972;SHT31;52726;48.852;9.152;2023-12-20T13:48:46;5.86;79.13
65972;SHT31;52726;48.852;9.152;2023-12-20T13:51:12;5.79;79.83
65972;SHT31;52726;48.852;9.152;2023-12-20T13:53:37;5.70;80.07
65972;SHT31;52726;48.852;9.152;2023-12-20T13:56:04;5.66;80.96
65972;SHT31;52726;48.852;9.152;2023-12-20T13:58:29;5.59;79.99
65972;SHT31;52726;48.852;9.152;2023-12-20T14:00:54;5.56;80.58
65972;SHT31;52726;48.852;9.152;2023-12-20T14:03:20;5.56;81.09
65972;SHT31;52726;48.852;9.152;2023-12-20T14:05:46;5.51;81.45
65972;SHT31;52726;48.852;9.152;2023-12-20T14:08:11;5.47;81.00
65972;SHT31;52726;48.852;9.152;2023-12-20T14:10:36;5.42;81.06
65972;SHT31;52726;48.852;9.152;2023-12-20T14:13:02;5.39;81.49
65972;SHT31;52726;48.852;9.152;2023-12-20T14:15:27;5.37;82.18
65972;SHT31;52726;48.852;9.152;2023-12-20T14:18:05;5.37;83.08
65972;SHT31;52726;48.852;9.152;2023-12-20T14:20:31;5.30;83.04
65972;SHT31;52726;48.852;9.152;2023-12-20T14:22:57;5.28;83.76
65972;SHT31;52726;48.852;9.152;2023-12-20T14:25:22;5.26;83.75
65972;SHT31;52726;48.852;9.152;2023-12-20T14:27:48;5.18;84.21
65972;SHT31;52726;48.852;9.152;2023-12-20T14:30:13;5.16;83.85
65972;SHT31;52726;48.852;9.152;2023-12-20T14:32:39;5.11;84.97
65972;SHT31;52726;48.852;9.152;2023-12-20T14:35:06;5.07;85.16
65972;SHT31;52726;48.852;9.152;2023-12-20T14:37:31;5.10;85.71
65972;SHT31;52726;48.852;9.152;2023-12-20T14:39:57;5.04;85.69
65972;SHT31;52726;48.852;9.152;2023-12-20T14:42:22;5.06;85.12
65972;SHT31;52726;48.852;9.152;2023-12-20T14:44:47;5.03;84.95
65972;SHT31;52726;48.852;9.152;2023-12-20T14:47:13;5.01;84.62
65972;SHT31;52726;48.852;9.152;2023-12-20T14:49:40;5.01;85.29
65972;SHT31;52726;48.852;9.152;2023-12-20T14:52:05;5.03;85.32
65972;SHT31;52726;48.852;9.152;2023-12-20T14:54:31;5.00;86.50
65972;SHT31;52726;48.852;9.152;2023-12-20T14:56:59;4.91;86.31
65972;SHT31;52726;48.852;9.152;2023-12-20T14:59:24;4.89;86.65
65972;SHT31;52726;48.852;9.152;2023-12-20T15:01:49;4.86;87.59
65972;SHT31;52726;48.852;9.152;2023-12-20T15:04:15;4.81;88.00
65972;SHT31;52726;48.852;9.152;2023-12-20T15:06:40;4.76;88.32
65972;SHT31;52726;48.852;9.152;2023-12-20T15:09:05;4.75;88.71
65972;SHT31;52726;48.852;9.152;2023-12-20T15:11:31;4.70;88.65
65972;SHT31;52726;48.852;9.152;2023-12-20T15:13:56;4.68;88.99
65972;SHT31;52726;48.852;9.152;2023-12-20T15:16:23;4.69;89.26
65972;SHT31;52726;48.852;9.152;2023-12-20T15:18:49;4.66;89.26
65972;SHT31;52726;48.852;9.152;2023-12-20T15:21:14;4.68;89.42
65972;SHT31;52726;48.852;9.152;2023-12-20T15:23:40;4.65;89.55
65972;SHT31;52726;48.852;9.152;2023-12-20T15:26:08;4.65;89.91
65972;SHT31;52726;48.852;9.152;2023-12-20T15:28:34;4.66;89.73
65972;SHT31;52726;48.852;9.152;2023-12-20T15:30:59;4.63;90.00
65972;SHT31;52726;48.852;9.152;2023-12-20T15:33:24;4.61;89.67
65972;SHT31;52726;48.852;9.152;2023-12-20T15:35:50;4.62;89.42
65972;SHT31;52726;48.852;9.152;2023-12-20T15:38:15;4.62;89.03
65972;SHT31;52726;48.852;9.152;2023-12-20T15:40:42;4.65;88.79